sensor_id;sensor_type;location;lat;lon;timestamp;pressure;altitude;pressure_sealevel;temperature;humidity
69971;BME280;57301;50.328;8.542;2023-11-18T00:01:38;99393.25;;;0.67;93.53
69971;BME280;57301;50.328;8.542;2023-11-18T00:04:05;99385.94;;;0.55;94.31
69971;BME280;57301;50.328;8.542;2023-11-18T00:06:36;99389.22;;;0.60;94.72
69971;BME280;57301;50.328;8.542;2023-11-18T00:09:02;99378.78;;;0.77;93.84
69971;BME280;57301;50.328;8.542;2023-11-18T00:11:29;99384.53;;;0.67;93.46
69971;BME280;57301;50.328;8.542;2023-11-18T00:13:55;99371.56;;;0.64;93.59
69971;BME280;57301;50.328;8.542;2023-11-18T00:16:22;99382.53;;;0.53;94.87
69971;BME280;57301;50.328;8.542;2023-11-18T00:18:49;99380.91;;;0.50;94.83
69971;BME280;57301;50.328;8.542;2023-11-18T00:21:15;99384.50;;;0.48;94.98
69971;BME280;57301;50.328;8.542;2023-11-18T00:23:43;99384.88;;;0.59;94.92
69971;BME280;57301;50.328;8.542;2023-11-18T00:26:09;99392.19;;;0.52;95.11
69971;BME280;57301;50.328;8.542;2023-11-18T00:28:36;99379.28;;;0.67;94.53
69971;BME280;57301;50.328;8.542;2023-11-18T00:31:03;99381.13;;;0.84;94.21
69971;BME280;57301;50.328;8.542;2023-11-18T00:33:31;99377.88;;;0.78;94.16
69971;BME280;57301;50.328;8.542;2023-11-18T00:35:58;99380.84;;;0.90;94.55
69971;BME280;57301;50.328;8.542;2023-11-18T00:38:26;99380.72;;;0.93;94.26
69971;BME280;57301;50.328;8.542;2023-11-18T00:40:53;99374.09;;;1.03;94.09
69971;BME280;57301;50.328;8.542;2023-11-18T00:43:19;99381.13;;;1.02;94.23
69971;BME280;57301;50.328;8.542;2023-11-18T00:45:45;99378.72;;;0.98;95.36
69971;BME280;57301;50.328;8.542;2023-11-18T00:48:13;99370.22;;;0.93;95.16
69971;BME280;57301;50.328;8.542;2023-11-18T00:50:41;99378.94;;;1.12;95.69
69971;BME280;57301;50.328;8.542;2023-11-18T00:53:07;99384.47;;;1.06;95.58
69971;BME280;57301;50.328;8.542;2023-11-18T00:55:34;99395.81;;;1.06;95.20
69971;BME280;57301;50.328;8.542;2023-11-18T00:58:01;99392.97;;;1.30;95.77
69971;BME280;57301;50.328;8.542;2023-11-18T01:00:27;99392.69;;;1.53;95.13
69971;BME280;57301;50.328;8.542;2023-11-18T01:02:54;99390.25;;;1.68;94.91
69971;BME280;57301;50.328;8.542;2023-11-18T01:05:21;99392.47;;;1.75;94.60
69971;BME280;57301;50.328;8.542;2023-11-18T01:07:47;99392.19;;;1.81;94.79
69971;BME280;57301;50.328;8.542;2023-11-18T01:10:14;99395.88;;;1.77;95.54
69971;BME280;57301;50.328;8.542;2023-11-18T01:12:41;99385.84;;;1.85;95.69
69971;BME280;57301;50.328;8.542;2023-11-18T01:15:08;99388.91;;;1.76;95.55
69971;BME280;57301;50.328;8.542;2023-11-18T01:17:36;99394.72;;;1.83;95.99
69971;BME280;57301;50.328;8.542;2023-11-18T01:20:03;99398.81;;;1.71;96.56
69971;BME280;57301;50.328;8.542;2023-11-18T01:22:36;99396.88;;;1.57;96.37
69971;BME280;57301;50.328;8.542;2023-11-18T01:25:03;99394.16;;;1.42;96.04
69971;BME280;57301;50.328;8.542;2023-11-18T01:27:30;99396.69;;;1.43;97.13
69971;BME280;57301;50.328;8.542;2023-11-18T01:29:56;99395.06;;;1.41;96.55
69971;BME280;57301;50.328;8.542;2023-11-18T01:32:23;99391.75;;;1.37;97.09
69971;BME280;57301;50.328;8.542;2023-11-18T01:34:50;99398.88;;;1.52;96.67
69971;BME280;57301;50.328;8.542;2023-11-18T01:37:17;99400.84;;;1.66;95.94
69971;BME280;57301;50.328;8.542;2023-11-18T01:39:44;99395.63;;;1.65;96.07
69971;BME280;57301;50.328;8.542;2023-11-18T01:42:10;99398.03;;;1.69;95.62
69971;BME280;57301;50.328;8.542;2023-11-18T01:44:38;99393.25;;;1.60;96.04
69971;BME280;57301;50.328;8.542;2023-11-18T01:47:04;99394.00;;;1.45;96.03
69971;BME280;57301;50.328;8.542;2023-11-18T01:49:36;99390.47;;;1.63;95.30
69971;BME280;57301;50.328;8.542;2023-11-18T01:52:07;99399.13;;;1.65;95.37
69971;BME280;57301;50.328;8.542;2023-11-18T01:54:36;99399.13;;;1.65;95.49
69971;BME280;57301;50.328;8.542;2023-11-18T01:57:04;99395.56;;;1.83;94.41
69971;BME280;57301;50.328;8.542;2023-11-18T01:59:33;99396.25;;;1.70;95.22
69971;BME280;57301;50.328;8.542;2023-11-18T02:02:01;99396.09;;;1.55;94.95
69971;BME280;57301;50.328;8.542;2023-11-18T02:04:28;99403.69;;;1.25;95.97
69971;BME280;57301;50.328;8.542;2023-11-18T02:06:56;99395.09;;;1.03;96.68
69971;BME280;57301;50.328;8.542;2023-11-18T02:09:24;99404.34;;;1.12;96.41
69971;BME280;57301;50.328;8.542;2023-11-18T02:14:26;99402.22;;;1.01;96.33
69971;BME280;57301;50.328;8.542;2023-11-18T02:16:55;99398.00;;;1.16;95.48
69971;BME280;57301;50.328;8.542;2023-11-18T02:19:24;99402.97;;;1.22;94.84
69971;BME280;57301;50.328;8.542;2023-11-18T02:21:52;99397.97;;;1.34;94.30
69971;BME280;57301;50.328;8.542;2023-11-18T02:24:31;99400.94;;;1.46;93.63
69971;BME280;57301;50.328;8.542;2023-11-18T02:27:00;99417.84;;;1.40;93.62
69971;BME280;57301;50.328;8.542;2023-11-18T02:29:30;99414.31;;;1.22;93.22
69971;BME280;57301;50.328;8.542;2023-11-18T02:32:13;99409.34;;;1.35;93.75
69971;BME280;57301;50.328;8.542;2023-11-18T02:34:50;99413.13;;;1.29;93.41
69971;BME280;57301;50.328;8.542;2023-11-18T02:37:18;99408.31;;;1.20;93.73
69971;BME280;57301;50.328;8.542;2023-11-18T02:39:48;99408.97;;;1.06;93.43
69971;BME280;57301;50.328;8.542;2023-11-18T02:42:21;99404.00;;;1.00;93.22
69971;BME280;57301;50.328;8.542;2023-11-18T02:44:50;99402.97;;;1.03;92.71
69971;BME280;57301;50.328;8.542;2023-11-18T02:47:26;99404.56;;;0.88;93.06
69971;BME280;57301;50.328;8.542;2023-11-18T02:49:54;99400.53;;;1.00;92.57
69971;BME280;57301;50.328;8.542;2023-11-18T02:52:22;99386.94;;;0.90;92.41
69971;BME280;57301;50.328;8.542;2023-11-18T02:54:49;99389.94;;;0.83;92.97
69971;BME280;57301;50.328;8.542;2023-11-18T02:57:15;99396.47;;;0.93;91.77
69971;BME280;57301;50.328;8.542;2023-11-18T02:59:42;99393.00;;;0.92;91.79
69971;BME280;57301;50.328;8.542;2023-11-18T03:02:08;99389.28;;;0.59;93.20
69971;BME280;57301;50.328;8.542;2023-11-18T03:04:36;99375.97;;;0.43;94.98
69971;BME280;57301;50.328;8.542;2023-11-18T03:07:02;99380.47;;;0.60;95.08
69971;BME280;57301;50.328;8.542;2023-11-18T03:09:29;99378.56;;;0.44;95.91
69971;BME280;57301;50.328;8.542;2023-11-18T03:11:55;99379.56;;;0.61;94.76
69971;BME280;57301;50.328;8.542;2023-11-18T03:14:25;99379.44;;;0.64;94.96
69971;BME280;57301;50.328;8.542;2023-11-18T03:16:52;99383.69;;;0.66;95.35
69971;BME280;57301;50.328;8.542;2023-11-18T03:19:22;99378.22;;;0.71;94.52
69971;BME280;57301;50.328;8.542;2023-11-18T03:21:52;99377.28;;;0.53;95.46
69971;BME280;57301;50.328;8.542;2023-11-18T03:24:19;99379.25;;;0.48;95.40
69971;BME280;57301;50.328;8.542;2023-11-18T03:26:46;99374.56;;;0.36;96.09
69971;BME280;57301;50.328;8.542;2023-11-18T03:29:12;99372.19;;;0.50;95.84
69971;BME280;57301;50.328;8.542;2023-11-18T03:31:39;99372.03;;;0.53;95.97
69971;BME280;57301;50.328;8.542;2023-11-18T03:34:06;99372.63;;;0.78;94.55
69971;BME280;57301;50.328;8.542;2023-11-18T03:36:32;99367.25;;;0.63;94.82
69971;BME280;57301;50.328;8.542;2023-11-18T03:38:59;99368.78;;;0.67;95.01
69971;BME280;57301;50.328;8.542;2023-11-18T03:41:27;99376.81;;;0.83;94.52
69971;BME280;57301;50.328;8.542;2023-11-18T03:43:54;99374.31;;;0.79;95.14
69971;BME280;57301;50.328;8.542;2023-11-18T03:46:20;99386.25;;;0.87;95.04
69971;BME280;57301;50.328;8.542;2023-11-18T03:48:47;99383.19;;;0.77;95.63
69971;BME280;57301;50.328;8.542;2023-11-18T03:51:13;99378.78;;;0.59;95.95
69971;BME280;57301;50.328;8.542;2023-11-18T03:53:43;99381.09;;;0.27;97.61
69971;BME280;57301;50.328;8.542;2023-11-18T03:56:09;99378.38;;;0.29;97.93
69971;BME280;57301;50.328;8.542;2023-11-18T03:58:36;99367.91;;;0.47;97.75
69971;BME280;57301;50.328;8.542;2023-11-18T04:01:03;99379.06;;;0.71;96.12
69971;BME280;57301;50.328;8.542;2023-11-18T04:03:29;99374.19;;;0.83;96.12
69971;BME280;57301;50.328;8.542;2023-11-18T04:05:56;99372.63;;;0.78;95.59
69971;BME280;57301;50.328;8.542;2023-11-18T04:08:22;99367.53;;;0.75;95.55
69971;BME280;57301;50.328;8.542;2023-11-18T04:10:49;99356.22;;;0.54;96.45
69971;BME280;57301;50.328;8.542;2023-11-18T04:13:15;99357.41;;;0.29;97.60
69971;BME280;57301;50.328;8.542;2023-11-18T04:15:42;99361.13;;;0.62;97.29
69971;BME280;57301;50.328;8.542;2023-11-18T04:18:08;99352.44;;;0.98;95.70
69971;BME280;57301;50.328;8.542;2023-11-18T04:20:35;99344.66;;;0.77;95.70
69971;BME280;57301;50.328;8.542;2023-11-18T04:23:01;99337.53;;;0.62;96.70
69971;BME280;57301;50.328;8.542;2023-11-18T04:25:28;99337.38;;;0.65;96.61
69971;BME280;57301;50.328;8.542;2023-11-18T04:27:54;99348.06;;;0.61;96.88
69971;BME280;57301;50.328;8.542;2023-11-18T04:30:21;99346.25;;;0.82;96.31
69971;BME280;57301;50.328;8.542;2023-11-18T04:32:47;99350.34;;;0.87;95.95
69971;BME280;57301;50.328;8.542;2023-11-18T04:35:14;99357.78;;;0.77;96.95
69971;BME280;57301;50.328;8.542;2023-11-18T04:37:41;99363.84;;;0.98;95.91
69971;BME280;57301;50.328;8.542;2023-11-18T04:40:10;99370.22;;;0.93;95.58
69971;BME280;57301;50.328;8.542;2023-11-18T04:42:38;99367.34;;;0.97;95.81
69971;BME280;57301;50.328;8.542;2023-11-18T04:45:05;99380.56;;;0.96;95.16
69971;BME280;57301;50.328;8.542;2023-11-18T04:47:32;99377.88;;;0.78;95.75
69971;BME280;57301;50.328;8.542;2023-11-18T04:49:58;99374.91;;;0.86;95.53
69971;BME280;57301;50.328;8.542;2023-11-18T04:52:25;99371.78;;;0.78;95.20
69971;BME280;57301;50.328;8.542;2023-11-18T04:54:53;99377.22;;;0.73;95.34
69971;BME280;57301;50.328;8.542;2023-11-18T04:57:19;99375.13;;;0.82;95.04
69971;BME280;57301;50.328;8.542;2023-11-18T04:59:47;99375.09;;;0.63;95.06
69971;BME280;57301;50.328;8.542;2023-11-18T05:02:14;99374.59;;;0.73;94.73
69971;BME280;57301;50.328;8.542;2023-11-18T05:04:41;99361.19;;;0.61;94.68
69971;BME280;57301;50.328;8.542;2023-11-18T05:07:07;99358.16;;;0.70;94.53
69971;BME280;57301;50.328;8.542;2023-11-18T05:09:34;99357.31;;;0.88;94.10
69971;BME280;57301;50.328;8.542;2023-11-18T05:12:00;99347.50;;;1.11;92.87
69971;BME280;57301;50.328;8.542;2023-11-18T05:14:27;99354.78;;;1.04;93.44
69971;BME280;57301;50.328;8.542;2023-11-18T05:16:55;99343.97;;;0.93;93.88
69971;BME280;57301;50.328;8.542;2023-11-18T05:19:21;99350.03;;;1.12;93.51
69971;BME280;57301;50.328;8.542;2023-11-18T05:21:48;99342.81;;;0.98;94.07
69971;BME280;57301;50.328;8.542;2023-11-18T05:24:16;99340.31;;;1.14;94.10
69971;BME280;57301;50.328;8.542;2023-11-18T05:26:42;99332.34;;;1.16;93.72
69971;BME280;57301;50.328;8.542;2023-11-18T05:29:09;99332.84;;;1.24;94.08
69971;BME280;57301;50.328;8.542;2023-11-18T05:31:36;99335.91;;;1.15;94.10
69971;BME280;57301;50.328;8.542;2023-11-18T05:34:03;99324.69;;;1.11;93.63
69971;BME280;57301;50.328;8.542;2023-11-18T05:36:31;99328.34;;;0.71;94.13
69971;BME280;57301;50.328;8.542;2023-11-18T05:39:04;99329.75;;;0.97;93.96
69971;BME280;57301;50.328;8.542;2023-11-18T05:41:36;99330.97;;;0.90;93.69
69971;BME280;57301;50.328;8.542;2023-11-18T05:44:07;99318.22;;;0.82;93.57
69971;BME280;57301;50.328;8.542;2023-11-18T05:46:36;99316.56;;;0.79;93.77
69971;BME280;57301;50.328;8.542;2023-11-18T05:49:03;99304.03;;;0.86;93.46
69971;BME280;57301;50.328;8.542;2023-11-18T05:51:34;99304.34;;;0.97;93.80
69971;BME280;57301;50.328;8.542;2023-11-18T05:54:01;99308.03;;;1.12;93.16
69971;BME280;57301;50.328;8.542;2023-11-18T05:56:28;99305.47;;;0.92;92.80
69971;BME280;57301;50.328;8.542;2023-11-18T05:58:54;99324.69;;;1.11;92.96
69971;BME280;57301;50.328;8.542;2023-11-18T06:01:21;99314.53;;;1.03;93.07
69971;BME280;57301;50.328;8.542;2023-11-18T06:03:48;99319.50;;;1.10;93.12
69971;BME280;57301;50.328;8.542;2023-11-18T06:06:16;99314.16;;;0.94;93.76
69971;BME280;57301;50.328;8.542;2023-11-18T06:08:49;99312.59;;;0.90;93.80
69971;BME280;57301;50.328;8.542;2023-11-18T06:11:16;99327.31;;;0.75;94.21
69971;BME280;57301;50.328;8.542;2023-11-18T06:18:44;99322.69;;;0.80;95.14
69971;BME280;57301;50.328;8.542;2023-11-18T06:21:14;99326.22;;;0.79;94.86
69971;BME280;57301;50.328;8.542;2023-11-18T06:23:42;99326.78;;;0.86;95.13
69971;BME280;57301;50.328;8.542;2023-11-18T06:26:09;99330.03;;;0.91;94.88
69971;BME280;57301;50.328;8.542;2023-11-18T06:28:40;99320.38;;;0.91;95.22
69971;BME280;57301;50.328;8.542;2023-11-18T06:31:07;99336.66;;;0.80;95.56
69971;BME280;57301;50.328;8.542;2023-11-18T06:33:39;99334.38;;;1.11;95.48
69971;BME280;57301;50.328;8.542;2023-11-18T06:38:46;99319.56;;;0.72;97.07
69971;BME280;57301;50.328;8.542;2023-11-18T06:41:13;99310.97;;;0.87;96.96
69971;BME280;57301;50.328;8.542;2023-11-18T06:43:43;99332.13;;;1.20;95.83
69971;BME280;57301;50.328;8.542;2023-11-18T06:46:31;99322.94;;;1.12;95.84
69971;BME280;57301;50.328;8.542;2023-11-18T06:49:01;99333.28;;;1.15;96.16
69971;BME280;57301;50.328;8.542;2023-11-18T06:51:33;99337.16;;;1.25;95.90
69971;BME280;57301;50.328;8.542;2023-11-18T06:54:05;99329.13;;;1.28;95.68
69971;BME280;57301;50.328;8.542;2023-11-18T06:56:40;99331.53;;;1.32;96.02
69971;BME280;57301;50.328;8.542;2023-11-18T06:59:10;99335.22;;;1.28;96.26
69971;BME280;57301;50.328;8.542;2023-11-18T07:01:39;99330.28;;;1.40;96.61
69971;BME280;57301;50.328;8.542;2023-11-18T07:04:10;99324.94;;;1.41;96.00
69971;BME280;57301;50.328;8.542;2023-11-18T07:06:37;99324.34;;;1.36;95.83
69971;BME280;57301;50.328;8.542;2023-11-18T07:09:09;99320.28;;;1.48;95.77
69971;BME280;57301;50.328;8.542;2023-11-18T07:11:47;99321.88;;;1.50;95.86
69971;BME280;57301;50.328;8.542;2023-11-18T07:14:15;99311.50;;;1.65;94.95
69971;BME280;57301;50.328;8.542;2023-11-18T07:16:42;99317.31;;;1.71;94.86
69971;BME280;57301;50.328;8.542;2023-11-18T07:19:09;99311.69;;;1.79;94.28
69971;BME280;57301;50.328;8.542;2023-11-18T07:21:41;99303.47;;;1.85;94.57
69971;BME280;57301;50.328;8.542;2023-11-18T07:24:08;99313.38;;;1.63;95.55
69971;BME280;57301;50.328;8.542;2023-11-18T07:26:35;99298.22;;;1.85;94.47
69971;BME280;57301;50.328;8.542;2023-11-18T07:29:02;99301.22;;;1.77;94.44
69971;BME280;57301;50.328;8.542;2023-11-18T07:31:28;99312.44;;;1.98;94.36
69971;BME280;57301;50.328;8.542;2023-11-18T07:33:55;99313.88;;;2.21;93.71
69971;BME280;57301;50.328;8.542;2023-11-18T07:36:22;99328.63;;;2.24;93.55
69971;BME280;57301;50.328;8.542;2023-11-18T07:38:49;99335.16;;;1.99;94.19
69971;BME280;57301;50.328;8.542;2023-11-18T07:41:18;99335.72;;;1.88;94.95
69971;BME280;57301;50.328;8.542;2023-11-18T07:43:57;99342.06;;;1.67;96.22
69971;BME280;57301;50.328;8.542;2023-11-18T07:46:23;99337.66;;;1.68;95.94
69971;BME280;57301;50.328;8.542;2023-11-18T07:48:51;99336.72;;;2.03;95.55
69971;BME280;57301;50.328;8.542;2023-11-18T07:51:19;99345.16;;;2.26;94.27
69971;BME280;57301;50.328;8.542;2023-11-18T07:53:48;99351.66;;;2.03;95.06
69971;BME280;57301;50.328;8.542;2023-11-18T07:56:15;99350.53;;;2.07;94.56
69971;BME280;57301;50.328;8.542;2023-11-18T07:58:43;99343.91;;;2.00;94.83
69971;BME280;57301;50.328;8.542;2023-11-18T08:01:13;99357.16;;;1.98;95.19
69971;BME280;57301;50.328;8.542;2023-11-18T08:03:42;99356.81;;;2.04;95.05
69971;BME280;57301;50.328;8.542;2023-11-18T08:06:11;99354.09;;;2.23;94.68
69971;BME280;57301;50.328;8.542;2023-11-18T08:08:38;99346.22;;;1.88;95.73
69971;BME280;57301;50.328;8.542;2023-11-18T08:11:06;99342.72;;;2.23;95.59
69971;BME280;57301;50.328;8.542;2023-11-18T08:13:33;99347.47;;;1.99;95.18
69971;BME280;57301;50.328;8.542;2023-11-18T08:16:00;99350.91;;;2.34;94.00
69971;BME280;57301;50.328;8.542;2023-11-18T08:18:27;99355.19;;;2.68;93.70
69971;BME280;57301;50.328;8.542;2023-11-18T08:20:57;99352.56;;;2.68;92.96
69971;BME280;57301;50.328;8.542;2023-11-18T08:23:26;99349.13;;;2.34;94.78
69971;BME280;57301;50.328;8.542;2023-11-18T08:25:55;99342.91;;;2.35;94.46
69971;BME280;57301;50.328;8.542;2023-11-18T08:28:22;99332.53;;;2.32;94.53
69971;BME280;57301;50.328;8.542;2023-11-18T08:30:48;99335.00;;;2.84;92.83
69971;BME280;57301;50.328;8.542;2023-11-18T08:33:17;99333.53;;;3.26;90.90
69971;BME280;57301;50.328;8.542;2023-11-18T08:35:44;99331.84;;;2.93;92.49
69971;BME280;57301;50.328;8.542;2023-11-18T08:38:12;99338.22;;;3.05;93.30
69971;BME280;57301;50.328;8.542;2023-11-18T08:40:39;99328.97;;;3.14;92.25
69971;BME280;57301;50.328;8.542;2023-11-18T08:43:06;99326.41;;;3.12;93.36
69971;BME280;57301;50.328;8.542;2023-11-18T08:45:34;99309.88;;;3.24;93.04
69971;BME280;57301;50.328;8.542;2023-11-18T08:48:03;99312.31;;;3.13;93.50
69971;BME280;57301;50.328;8.542;2023-11-18T08:50:35;99300.19;;;3.25;92.46
69971;BME280;57301;50.328;8.542;2023-11-18T08:53:02;99305.44;;;3.41;92.43
69971;BME280;57301;50.328;8.542;2023-11-18T08:55:35;99301.38;;;3.65;91.67
69971;BME280;57301;50.328;8.542;2023-11-18T08:58:09;99306.84;;;3.32;92.61
69971;BME280;57301;50.328;8.542;2023-11-18T09:00:53;99300.66;;;3.47;92.84
69971;BME280;57301;50.328;8.542;2023-11-18T09:03:27;99301.75;;;3.43;92.56
69971;BME280;57301;50.328;8.542;2023-11-18T09:05:56;99305.56;;;3.84;92.13
69971;BME280;57301;50.328;8.542;2023-11-18T09:08:28;99294.91;;;3.85;91.97
69971;BME280;57301;50.328;8.542;2023-11-18T09:10:56;99297.84;;;4.09;92.65
69971;BME280;57301;50.328;8.542;2023-11-18T09:13:24;99293.78;;;4.03;92.70
69971;BME280;57301;50.328;8.542;2023-11-18T09:18:29;99304.38;;;4.32;92.50
69971;BME280;57301;50.328;8.542;2023-11-18T09:21:01;99298.69;;;4.52;93.13
69971;BME280;57301;50.328;8.542;2023-11-18T09:23:29;99289.56;;;4.44;92.54
69971;BME280;57301;50.328;8.542;2023-11-18T09:25:56;99293.16;;;4.43;94.13
69971;BME280;57301;50.328;8.542;2023-11-18T09:28:23;99288.16;;;4.94;92.37
69971;BME280;57301;50.328;8.542;2023-11-18T09:30:56;99295.00;;;4.69;92.83
69971;BME280;57301;50.328;8.542;2023-11-18T09:33:30;99299.16;;;4.59;94.01
69971;BME280;57301;50.328;8.542;2023-11-18T09:36:03;99314.06;;;4.60;93.93
69971;BME280;57301;50.328;8.542;2023-11-18T09:38:38;99308.22;;;4.69;94.61
69971;BME280;57301;50.328;8.542;2023-11-18T09:41:10;99310.00;;;5.37;92.39
69971;BME280;57301;50.328;8.542;2023-11-18T09:43:41;99303.38;;;5.57;91.31
69971;BME280;57301;50.328;8.542;2023-11-18T09:46:23;99299.81;;;5.71;90.67
69971;BME280;57301;50.328;8.542;2023-11-18T09:48:52;99305.41;;;6.06;90.99
69971;BME280;57301;50.328;8.542;2023-11-18T09:51:22;99294.06;;;6.16;90.32
69971;BME280;57301;50.328;8.542;2023-11-18T09:53:59;99302.66;;;6.33;90.90
69971;BME280;57301;50.328;8.542;2023-11-18T10:02:03;99299.13;;;6.19;91.54
69971;BME280;57301;50.328;8.542;2023-11-18T10:04:31;99299.22;;;6.56;90.19
69971;BME280;57301;50.328;8.542;2023-11-18T10:06:58;99286.81;;;6.57;90.55
69971;BME280;57301;50.328;8.542;2023-11-18T10:09:28;99280.06;;;6.89;89.29
69971;BME280;57301;50.328;8.542;2023-11-18T10:11:55;99283.69;;;6.88;89.46
69971;BME280;57301;50.328;8.542;2023-11-18T10:14:33;99280.44;;;6.72;90.72
69971;BME280;57301;50.328;8.542;2023-11-18T10:17:04;99290.50;;;6.67;91.08
69971;BME280;57301;50.328;8.542;2023-11-18T10:19:52;99285.03;;;6.94;90.40
69971;BME280;57301;50.328;8.542;2023-11-18T10:22:23;99285.56;;;6.86;89.83
69971;BME280;57301;50.328;8.542;2023-11-18T10:24:50;99281.63;;;6.92;88.52
69971;BME280;57301;50.328;8.542;2023-11-18T10:27:24;99285.84;;;7.07;89.19
69971;BME280;57301;50.328;8.542;2023-11-18T10:29:58;99275.59;;;6.90;90.74
69971;BME280;57301;50.328;8.542;2023-11-18T10:32:29;99272.00;;;6.91;90.65
69971;BME280;57301;50.328;8.542;2023-11-18T10:34:58;99270.97;;;6.81;91.57
69971;BME280;57301;50.328;8.542;2023-11-18T10:37:25;99264.97;;;6.66;90.70
69971;BME280;57301;50.328;8.542;2023-11-18T10:39:52;99266.66;;;6.67;91.48
69971;BME280;57301;50.328;8.542;2023-11-18T10:42:19;99264.72;;;6.82;91.04
69971;BME280;57301;50.328;8.542;2023-11-18T10:47:26;99259.78;;;7.01;90.82
69971;BME280;57301;50.328;8.542;2023-11-18T10:49:56;99242.91;;;6.65;90.77
69971;BME280;57301;50.328;8.542;2023-11-18T10:52:24;99243.31;;;6.72;91.32
69971;BME280;57301;50.328;8.542;2023-11-18T10:54:53;99240.69;;;6.72;91.52
69971;BME280;57301;50.328;8.542;2023-11-18T10:57:23;99243.16;;;6.86;91.27
69971;BME280;57301;50.328;8.542;2023-11-18T11:00:04;99237.19;;;6.71;90.66
69971;BME280;57301;50.328;8.542;2023-11-18T11:02:40;99235.56;;;6.45;92.52
69971;BME280;57301;50.328;8.542;2023-11-18T11:05:11;99232.47;;;6.88;91.78
69971;BME280;57301;50.328;8.542;2023-11-18T11:07:48;99233.25;;;6.77;91.64
69971;BME280;57301;50.328;8.542;2023-11-18T11:10:16;99229.06;;;6.86;90.84
69971;BME280;57301;50.328;8.542;2023-11-18T11:12:50;99229.44;;;6.92;90.48
69971;BME280;57301;50.328;8.542;2023-11-18T11:15:29;99213.09;;;6.98;89.78
69971;BME280;57301;50.328;8.542;2023-11-18T11:18:08;99203.44;;;6.73;90.92
69971;BME280;57301;50.328;8.542;2023-11-18T11:20:47;99199.00;;;6.74;91.00
69971;BME280;57301;50.328;8.542;2023-11-18T11:26:15;99210.88;;;6.68;90.18
69971;BME280;57301;50.328;8.542;2023-11-18T11:28:55;99196.25;;;6.76;89.97
69971;BME280;57301;50.328;8.542;2023-11-18T11:31:31;99185.28;;;6.56;89.95
69971;BME280;57301;50.328;8.542;2023-11-18T11:34:14;99178.94;;;6.83;90.07
69971;BME280;57301;50.328;8.542;2023-11-18T11:36:46;99173.34;;;6.38;90.86
69971;BME280;57301;50.328;8.542;2023-11-18T11:39:17;99159.66;;;6.44;90.83
69971;BME280;57301;50.328;8.542;2023-11-18T11:41:52;99160.88;;;6.40;91.88
69971;BME280;57301;50.328;8.542;2023-11-18T11:44:21;99154.31;;;6.57;91.56
69971;BME280;57301;50.328;8.542;2023-11-18T11:46:47;99163.41;;;6.41;92.20
69971;BME280;57301;50.328;8.542;2023-11-18T11:49:23;99162.28;;;6.33;92.55
69971;BME280;57301;50.328;8.542;2023-11-18T11:52:04;99151.28;;;6.26;93.45
69971;BME280;57301;50.328;8.542;2023-11-18T11:54:38;99148.66;;;5.88;95.17
69971;BME280;57301;50.328;8.542;2023-11-18T11:57:06;99145.19;;;6.00;94.73
69971;BME280;57301;50.328;8.542;2023-11-18T12:02:11;99139.88;;;5.75;96.25
69971;BME280;57301;50.328;8.542;2023-11-18T12:04:46;99128.69;;;5.71;97.16
69971;BME280;57301;50.328;8.542;2023-11-18T12:07:19;99132.59;;;5.91;97.45
69971;BME280;57301;50.328;8.542;2023-11-18T12:09:47;99125.50;;;5.79;97.33
69971;BME280;57301;50.328;8.542;2023-11-18T12:12:17;99127.50;;;5.75;97.15
69971;BME280;57301;50.328;8.542;2023-11-18T12:14:56;99123.59;;;5.93;96.75
69971;BME280;57301;50.328;8.542;2023-11-18T12:17:24;99113.00;;;5.93;96.15
69971;BME280;57301;50.328;8.542;2023-11-18T12:19:55;99106.13;;;5.91;96.78
69971;BME280;57301;50.328;8.542;2023-11-18T12:22:27;99102.00;;;6.24;95.87
69971;BME280;57301;50.328;8.542;2023-11-18T12:33:00;99122.50;;;6.09;96.15
69971;BME280;57301;50.328;8.542;2023-11-18T12:41:38;99104.94;;;5.95;96.99
69971;BME280;57301;50.328;8.542;2023-11-18T12:46:52;99093.44;;;5.96;97.23
69971;BME280;57301;50.328;8.542;2023-11-18T12:49:23;99095.03;;;6.23;96.54
69971;BME280;57301;50.328;8.542;2023-11-18T12:51:52;99087.94;;;6.23;95.61
69971;BME280;57301;50.328;8.542;2023-11-18T12:54:19;99088.41;;;6.04;96.68
69971;BME280;57301;50.328;8.542;2023-11-18T12:56:51;99075.78;;;6.21;96.93
69971;BME280;57301;50.328;8.542;2023-11-18T12:59:20;99067.47;;;6.25;96.07
69971;BME280;57301;50.328;8.542;2023-11-18T13:01:47;99058.22;;;6.55;94.72
69971;BME280;57301;50.328;8.542;2023-11-18T13:04:20;99064.75;;;6.38;94.87
69971;BME280;57301;50.328;8.542;2023-11-18T13:06:47;99064.38;;;6.31;96.77
69971;BME280;57301;50.328;8.542;2023-11-18T13:09:16;99061.66;;;6.44;96.88
69971;BME280;57301;50.328;8.542;2023-11-18T13:11:58;99051.66;;;6.71;95.40
69971;BME280;57301;50.328;8.542;2023-11-18T13:14:32;99044.84;;;6.56;95.13
69971;BME280;57301;50.328;8.542;2023-11-18T13:17:10;99033.38;;;6.44;95.41
69971;BME280;57301;50.328;8.542;2023-11-18T13:19:40;99027.53;;;6.28;97.15
69971;BME280;57301;50.328;8.542;2023-11-18T13:22:11;99033.38;;;6.44;96.01
69971;BME280;57301;50.328;8.542;2023-11-18T13:24:42;99043.81;;;6.35;96.70
69971;BME280;57301;50.328;8.542;2023-11-18T13:27:14;99037.88;;;6.31;96.37
69971;BME280;57301;50.328;8.542;2023-11-18T13:29:49;99027.66;;;6.27;96.37
69971;BME280;57301;50.328;8.542;2023-11-18T13:32:17;99027.28;;;6.31;96.15
69971;BME280;57301;50.328;8.542;2023-11-18T13:34:47;99030.44;;;6.36;96.45
69971;BME280;57301;50.328;8.542;2023-11-18T13:37:17;99017.78;;;6.29;96.17
69971;BME280;57301;50.328;8.542;2023-11-18T13:39:44;99017.31;;;6.35;96.57
69971;BME280;57301;50.328;8.542;2023-11-18T13:42:23;99022.88;;;6.43;95.37
69971;BME280;57301;50.328;8.542;2023-11-18T13:44:50;99026.22;;;6.34;96.73
69971;BME280;57301;50.328;8.542;2023-11-18T13:47:22;99021.91;;;6.33;96.83
69971;BME280;57301;50.328;8.542;2023-11-18T13:49:49;99007.91;;;6.31;96.37
69971;BME280;57301;50.328;8.542;2023-11-18T13:52:17;99009.72;;;6.06;97.12
69971;BME280;57301;50.328;8.542;2023-11-18T13:54:46;99011.47;;;6.18;97.68
69971;BME280;57301;50.328;8.542;2023-11-18T13:57:14;99011.97;;;6.00;98.52
69971;BME280;57301;50.328;8.542;2023-11-18T13:59:40;99006.78;;;6.22;97.64
69971;BME280;57301;50.328;8.542;2023-11-18T14:02:11;99014.41;;;6.27;97.51
69971;BME280;57301;50.328;8.542;2023-11-18T14:04:41;99016.94;;;6.28;98.28